Time;durP1;ratioP1;P1;durP2;ratioP2;P2;SDS_P1;SDS_P2;PMS_P1;PMS_P2;Temp;Humidity;BMP_temperature;BMP_pressure;BME280_temperature;BME280_humidity;BME280_pressure;Samples;Min_cycle;Max_cycle;Signal;HPM_P1;HPM_P2
2023/07/22 06:34:39;;;;;;;;;5.33;5.33;;;;;;;;4786597;24;28320;-91
2023/07/22 06:37:05;;;;;;;;;5.00;5.00;;;;;;;;4768065;29;28256;-91
2023/07/22 06:39:30;;;;;;;;;1.00;1.00;;;;;;;;4760066;29;28755;-92
2023/07/22 06:41:55;;;;;;;;;5.00;5.00;;;;;;;;4763503;29;28878;-92
2023/07/22 06:44:21;;;;;;;;;5.33;3.00;;;;;;;;4750861;29;28512;-91
2023/07/22 06:46:46;;;;;;;;;3.00;3.00;;;;;;;;4755632;30;28569;-93
2023/07/22 06:55:50;;;;;;;;;3.00;3.00;;;;;;;;4742032;30;28290;-95
2023/07/22 07:03:51;;;;;;;;;;;;;;;;;;;;;
2023/07/22 07:09:32;;;;;;;;;3.00;3.00;;;;;;;;4653515;30;28722;-92
2023/07/22 07:11:57;;;;;;;;;2.33;2.33;;;;;;;;4730174;30;28346;-90
2023/07/22 07:14:23;;;;;;;;;2.33;2.33;;;;;;;;4741072;29;29308;-91
2023/07/22 07:16:51;;;;;;;;;2.00;2.00;;;;;;;;4732391;30;28563;-93
2023/07/22 07:19:16;;;;;;;;;2.00;2.00;;;;;;;;4719487;30;30814;-92
2023/07/22 07:21:41;;;;;;;;;1.00;1.00;;;;;;;;4734933;30;28397;-92
2023/07/22 08:50:46;;;;;;;;;1.00;1.00;;;;;;;;5077094;24;45236;-95
2023/07/22 08:53:19;;;;;;;;;0.67;0.67;;;;;;;;4757727;29;45624;-96
2023/07/22 08:55:45;;;;;;;;;0.00;0.00;;;;;;;;4764562;29;47143;-96
2023/07/22 08:58:13;;;;;;;;;1.00;1.00;;;;;;;;4785739;29;44566;-95
2023/07/22 09:00:39;;;;;;;;;1.00;1.00;;;;;;;;4775963;29;28352;-95
2023/07/22 09:03:05;;;;;;;;;1.00;1.00;;;;;;;;4774451;29;28469;-94
2023/07/22 09:05:33;;;;;;;;;0.33;0.33;;;;;;;;4773823;29;28350;-93
2023/07/22 09:08:01;;;;;;;;;0.67;0.67;;;;;;;;4771393;29;28500;-95
2023/07/22 09:10:27;;;;;;;;;1.00;1.00;;;;;;;;4776848;29;28550;-94
2023/07/22 09:12:53;;;;;;;;;1.00;1.00;;;;;;;;4763489;29;28648;-94
2023/07/22 09:15:18;;;;;;;;;1.00;1.00;;;;;;;;4754702;29;29885;-93
2023/07/22 09:17:47;;;;;;;;;1.33;1.33;;;;;;;;4771251;29;28415;-93
2023/07/22 09:20:15;;;;;;;;;0.67;0.67;;;;;;;;4770517;29;42902;-94
2023/07/22 09:22:47;;;;;;;;;0.00;0.00;;;;;;;;4762959;29;45160;-95
2023/07/22 09:25:18;;;;;;;;;1.75;1.75;;;;;;;;4767960;29;45418;-95
2023/07/22 09:27:46;;;;;;;;;1.00;1.00;;;;;;;;4741941;29;45752;-94
2023/07/22 09:30:20;;;;;;;;;1.00;1.00;;;;;;;;4757232;29;45318;-95
2023/07/22 09:32:45;;;;;;;;;1.00;1.00;;;;;;;;4769746;29;45670;-94
2023/07/22 09:35:10;;;;;;;;;0.00;0.00;;;;;;;;4753182;29;47467;-94
2023/07/22 09:37:37;;;;;;;;;2.00;2.00;;;;;;;;4757484;29;45430;-94
2023/07/22 09:40:13;;;;;;;;;0.33;0.33;;;;;;;;4747011;29;45413;-95
2023/07/22 09:46:15;;;;;;;;;0.00;0.00;;;;;;;;4686533;30;46209;-94
2023/07/22 10:04:38;;;;;;;;;;;;;;;;;;;;;
2023/07/22 10:07:04;;;;;;;;;0.00;0.00;;;;;;;;4682196;30;52937;-94
2023/07/22 10:09:47;;;;;;;;;1.00;1.00;;;;;;;;4688017;30;29931;-94
2023/07/22 10:15:27;;;;;;;;;;;;;;;;;;;;;
2023/07/22 10:18:05;;;;;;;;;;;;;;;;;;;;;
2023/07/22 10:20:44;;;;;;;;;;;;;;;;;;;;;
2023/07/22 10:23:14;;;;;;;;;1.00;1.00;;;;;;;;4771295;29;56976;-94
2023/07/22 10:25:46;;;;;;;;;1.00;1.00;;;;;;;;4772710;29;28389;-95
2023/07/22 10:28:21;;;;;;;;;1.00;1.00;;;;;;;;4770165;29;28429;-93
2023/07/22 10:31:02;;;;;;;;;1.00;1.00;;;;;;;;4771103;29;28858;-94
2023/07/22 10:33:30;;;;;;;;;1.00;1.00;;;;;;;;4754856;29;28564;-94
2023/07/22 10:36:04;;;;;;;;;2.00;2.00;;;;;;;;4772509;29;28433;-94
2023/07/22 10:38:30;;;;;;;;;0.33;0.33;;;;;;;;4767372;29;28328;-94
2023/07/22 10:40:58;;;;;;;;;1.00;1.00;;;;;;;;4770664;29;28357;-95
2023/07/22 10:43:25;;;;;;;;;1.00;1.00;;;;;;;;4764849;29;28549;-94
2023/07/22 10:45:51;;;;;;;;;0.00;0.00;;;;;;;;4770595;29;28695;-94
2023/07/22 10:48:18;;;;;;;;;0.00;0.00;;;;;;;;4755179;29;28332;-93
2023/07/22 10:50:46;;;;;;;;;1.00;1.00;;;;;;;;4762025;29;28635;-94
2023/07/22 10:53:31;;;;;;;;;2.00;2.00;;;;;;;;4757163;29;28757;-95
2023/07/22 10:56:29;;;;;;;;;1.00;1.00;;;;;;;;4756077;29;28341;-96
2023/07/22 10:58:56;;;;;;;;;1.00;1.00;;;;;;;;4766145;29;28616;-96
2023/07/22 11:01:43;;;;;;;;;;;;;;;;;;;;;
2023/07/22 11:04:34;;;;;;;;;1.00;1.00;;;;;;;;4771198;29;56972;-96
2023/07/22 11:06:58;;;;;;;;;1.00;1.00;;;;;;;;4772180;29;28559;-94
2023/07/22 11:09:27;;;;;;;;;1.00;1.00;;;;;;;;4758123;29;28591;-95
2023/07/22 11:11:53;;;;;;;;;1.00;1.00;;;;;;;;4754710;29;29825;-94
2023/07/22 11:14:21;;;;;;;;;1.00;1.00;;;;;;;;4772163;29;28456;-94
2023/07/22 11:17:07;;;;;;;;;1.00;1.00;;;;;;;;4771986;29;28305;-94
2023/07/22 11:19:35;;;;;;;;;1.33;1.33;;;;;;;;4753518;29;28272;-94
2023/07/22 11:22:01;;;;;;;;;2.00;1.00;;;;;;;;4771863;29;29540;-93
2023/07/22 11:24:26;;;;;;;;;1.00;1.00;;;;;;;;4767054;29;28440;-94
2023/07/22 11:26:52;;;;;;;;;1.00;1.00;;;;;;;;4770930;29;28436;-94
2023/07/22 11:29:17;;;;;;;;;1.33;1.33;;;;;;;;4755409;29;28413;-93
2023/07/22 11:31:45;;;;;;;;;0.00;0.00;;;;;;;;4763816;29;28615;-94
2023/07/22 11:34:10;;;;;;;;;1.00;1.00;;;;;;;;4771353;29;28311;-94
2023/07/22 11:36:36;;;;;;;;;1.00;1.00;;;;;;;;4754614;29;28240;-94
2023/07/22 11:39:05;;;;;;;;;1.00;1.00;;;;;;;;4769830;29;28323;-94
2023/07/22 11:41:32;;;;;;;;;1.67;1.67;;;;;;;;4761256;29;28817;-94
2023/07/22 11:44:00;;;;;;;;;1.00;1.00;;;;;;;;4772277;29;28525;-95
2023/07/22 11:46:25;;;;;;;;;0.00;0.00;;;;;;;;4772588;29;28333;-94
2023/07/22 11:48:55;;;;;;;;;0.00;0.00;;;;;;;;4754363;29;28327;-94
2023/07/22 11:51:21;;;;;;;;;1.00;1.00;;;;;;;;4772091;29;28508;-92
2023/07/22 11:53:48;;;;;;;;;0.00;0.00;;;;;;;;4769931;29;28813;-95
2023/07/22 11:56:17;;;;;;;;;1.00;1.00;;;;;;;;4771602;29;28528;-94
2023/07/22 11:58:44;;;;;;;;;0.00;0.00;;;;;;;;4752823;29;28434;-94
2023/07/22 12:01:10;;;;;;;;;1.00;1.00;;;;;;;;4755854;29;28402;-95
2023/07/22 12:03:39;;;;;;;;;1.00;1.00;;;;;;;;4757383;29;28580;-94
2023/07/22 12:06:06;;;;;;;;;0.33;0.33;;;;;;;;4759165;29;28438;-92
2023/07/22 12:08:36;;;;;;;;;0.00;0.00;;;;;;;;4775265;29;28400;-93
2023/07/22 12:11:01;;;;;;;;;0.67;0.67;;;;;;;;4772109;29;30960;-93
2023/07/22 12:13:26;;;;;;;;;1.00;1.00;;;;;;;;4747996;29;28374;-92
2023/07/22 12:16:01;;;;;;;;;1.00;1.00;;;;;;;;4775214;29;28351;-93
2023/07/22 12:18:40;;;;;;;;;1.00;1.00;;;;;;;;4750225;29;28425;-94
2023/07/22 12:21:06;;;;;;;;;1.00;1.00;;;;;;;;4757256;29;29835;-93
2023/07/22 12:23:31;;;;;;;;;0.67;0.67;;;;;;;;4774905;29;28239;-93
2023/07/22 12:25:57;;;;;;;;;0.33;0.33;;;;;;;;4774300;29;28583;-93
2023/07/22 12:28:22;;;;;;;;;1.00;1.00;;;;;;;;4758738;29;28539;-93
2023/07/22 12:31:09;;;;;;;;;;;;;;;;;;;;;
2023/07/22 12:33:57;;;;;;;;;0.00;0.00;;;;;;;;4772946;29;56017;-93
2023/07/22 12:36:22;;;;;;;;;0.00;0.00;;;;;;;;4748726;29;28505;-93
2023/07/22 12:38:47;;;;;;;;;0.33;0.33;;;;;;;;4758303;29;28627;-92
2023/07/22 12:41:13;;;;;;;;;1.00;1.00;;;;;;;;4773998;29;29241;-92
2023/07/22 12:43:38;;;;;;;;;1.00;1.00;;;;;;;;4772459;29;28502;-92
2023/07/22 12:46:04;;;;;;;;;1.00;1.00;;;;;;;;4774974;29;28437;-93
2023/07/22 12:48:29;;;;;;;;;1.33;1.00;;;;;;;;4761652;29;28515;-93
2023/07/22 12:50:57;;;;;;;;;0.67;0.67;;;;;;;;4755049;29;28813;-93
2023/07/22 12:53:25;;;;;;;;;0.33;0.33;;;;;;;;4752995;29;29029;-92
2023/07/22 12:55:50;;;;;;;;;1.00;1.00;;;;;;;;4751372;29;28546;-92
2023/07/22 12:58:15;;;;;;;;;0.00;0.00;;;;;;;;4770323;29;28491;-93
2023/07/22 13:00:41;;;;;;;;;1.00;1.00;;;;;;;;4766425;29;28342;-92
2023/07/22 13:03:06;;;;;;;;;1.00;1.00;;;;;;;;4751318;29;28509;-93
2023/07/22 13:05:31;;;;;;;;;3.00;1.00;;;;;;;;4767589;29;28551;-93
2023/07/22 13:07:58;;;;;;;;;2.00;2.00;;;;;;;;4766509;29;28536;-93
2023/07/22 13:10:25;;;;;;;;;1.00;1.00;;;;;;;;4769558;29;29053;-93
2023/07/22 13:12:50;;;;;;;;;1.00;1.00;;;;;;;;4772968;29;28547;-93
2023/07/22 13:15:15;;;;;;;;;2.00;2.00;;;;;;;;4773426;29;28452;-93
2023/07/22 13:17:41;;;;;;;;;0.00;0.00;;;;;;;;4772488;29;28456;-93
2023/07/22 13:20:09;;;;;;;;;0.67;0.67;;;;;;;;4771162;29;28343;-93
2023/07/22 13:22:37;;;;;;;;;2.00;2.00;;;;;;;;4772175;29;28566;-93
2023/07/22 13:25:03;;;;;;;;;1.67;1.67;;;;;;;;4772876;29;28442;-93
2023/07/22 13:27:28;;;;;;;;;1.00;1.00;;;;;;;;4772240;29;28413;-93
2023/07/22 13:29:53;;;;;;;;;1.33;1.33;;;;;;;;4751686;29;31553;-93
2023/07/22 13:32:21;;;;;;;;;1.00;1.00;;;;;;;;4754154;29;29455;-93
2023/07/22 13:34:46;;;;;;;;;1.67;1.67;;;;;;;;4771755;29;45282;-93
2023/07/22 13:37:12;;;;;;;;;1.00;1.00;;;;;;;;4753099;29;44767;-93
2023/07/22 13:39:37;;;;;;;;;1.33;1.33;;;;;;;;4755633;29;29388;-93
2023/07/22 13:42:02;;;;;;;;;1.00;1.00;;;;;;;;4773082;29;28275;-93
2023/07/22 13:44:27;;;;;;;;;1.00;1.00;;;;;;;;4756950;29;28271;-93
2023/07/22 13:46:53;;;;;;;;;1.33;1.33;;;;;;;;4756782;29;28324;-93
2023/07/22 13:49:18;;;;;;;;;0.33;0.33;;;;;;;;4772294;29;28429;-93
2023/07/22 13:51:43;;;;;;;;;2.00;2.00;;;;;;;;4773148;29;28346;-93
2023/07/22 13:54:09;;;;;;;;;1.00;1.00;;;;;;;;4756655;29;28484;-93
2023/07/22 13:56:34;;;;;;;;;1.00;1.00;;;;;;;;4773061;29;28297;-93
2023/07/22 13:59:00;;;;;;;;;1.00;1.00;;;;;;;;4756381;29;29679;-94
2023/07/22 14:01:26;;;;;;;;;2.00;2.00;;;;;;;;4772097;29;28484;-93
2023/07/22 14:03:51;;;;;;;;;1.00;1.00;;;;;;;;4772648;29;28506;-93
2023/07/22 14:06:16;;;;;;;;;1.00;1.00;;;;;;;;4756342;29;28635;-93
2023/07/22 14:08:42;;;;;;;;;2.00;2.00;;;;;;;;4756079;29;30029;-93
2023/07/22 14:11:07;;;;;;;;;0.67;0.67;;;;;;;;4763176;29;28538;-93
2023/07/22 14:13:33;;;;;;;;;2.00;2.00;;;;;;;;4756451;29;28339;-93
2023/07/22 14:15:58;;;;;;;;;0.00;0.00;;;;;;;;4772558;29;38414;-93
2023/07/22 14:18:24;;;;;;;;;1.00;1.00;;;;;;;;4772336;29;28553;-93
2023/07/22 14:20:50;;;;;;;;;0.33;0.33;;;;;;;;4756452;29;42412;-93
2023/07/22 14:23:15;;;;;;;;;1.00;1.00;;;;;;;;4774663;29;28329;-93
2023/07/22 14:25:43;;;;;;;;;1.00;1.00;;;;;;;;4756261;29;28524;-93
2023/07/22 14:28:08;;;;;;;;;2.00;2.00;;;;;;;;4754755;29;29603;-92
2023/07/22 14:30:34;;;;;;;;;1.00;1.00;;;;;;;;4773011;29;28313;-93
2023/07/22 14:32:59;;;;;;;;;1.00;1.00;;;;;;;;4757157;29;28468;-93
2023/07/22 14:35:24;;;;;;;;;1.33;1.33;;;;;;;;4757199;29;28243;-93
2023/07/22 14:37:49;;;;;;;;;1.00;1.00;;;;;;;;4772330;29;28515;-93
2023/07/22 14:40:16;;;;;;;;;1.00;1.00;;;;;;;;4771046;29;28563;-93
2023/07/22 14:42:41;;;;;;;;;1.00;1.00;;;;;;;;4755618;29;28456;-93
2023/07/22 14:45:06;;;;;;;;;0.33;0.33;;;;;;;;4754893;29;28692;-94
2023/07/22 14:47:32;;;;;;;;;1.00;1.00;;;;;;;;4772195;29;29322;-92
2023/07/22 14:49:57;;;;;;;;;1.33;1.33;;;;;;;;4750671;29;28513;-93
2023/07/22 14:52:23;;;;;;;;;3.33;2.33;;;;;;;;4738518;30;28517;-93
2023/07/22 14:54:48;;;;;;;;;2.00;2.00;;;;;;;;4754364;30;28402;-93
2023/07/22 14:57:14;;;;;;;;;1.00;1.00;;;;;;;;4753565;29;28593;-93
2023/07/22 14:59:39;;;;;;;;;1.33;1.33;;;;;;;;4754214;30;28405;-93
2023/07/22 15:02:04;;;;;;;;;2.33;2.33;;;;;;;;4754418;30;28329;-93
2023/07/22 15:04:31;;;;;;;;;2.00;2.00;;;;;;;;4738428;30;28501;-93
2023/07/22 15:06:56;;;;;;;;;2.00;2.00;;;;;;;;4755021;30;28361;-92
2023/07/22 15:09:22;;;;;;;;;2.00;2.00;;;;;;;;4737820;30;28399;-93
2023/07/22 15:11:47;;;;;;;;;1.67;1.67;;;;;;;;4737306;30;28303;-93
2023/07/22 15:14:12;;;;;;;;;2.00;2.00;;;;;;;;4753800;30;28379;-93
2023/07/22 15:16:40;;;;;;;;;3.00;3.00;;;;;;;;4737494;30;29720;-93
2023/07/22 15:19:10;;;;;;;;;2.00;2.00;;;;;;;;4752364;30;28547;-93
2023/07/22 15:21:35;;;;;;;;;2.33;2.33;;;;;;;;4754411;30;28356;-93
2023/07/22 15:24:00;;;;;;;;;2.00;2.00;;;;;;;;4742817;30;28502;-93
2023/07/22 15:26:28;;;;;;;;;2.00;2.00;;;;;;;;4753513;30;28329;-93
2023/07/22 15:28:53;;;;;;;;;2.00;2.00;;;;;;;;4752549;30;28272;-93
2023/07/22 15:31:19;;;;;;;;;1.67;1.67;;;;;;;;4738170;30;28326;-93
2023/07/22 15:33:45;;;;;;;;;1.33;1.33;;;;;;;;4749771;30;28343;-93
2023/07/22 15:36:10;;;;;;;;;1.00;1.00;;;;;;;;4733440;30;29707;-94
2023/07/22 15:38:36;;;;;;;;;2.33;1.67;;;;;;;;4741157;30;28450;-93
2023/07/22 15:41:01;;;;;;;;;2.33;1.00;;;;;;;;4736327;30;29287;-93
2023/07/22 15:43:27;;;;;;;;;1.33;1.33;;;;;;;;4737034;30;28475;-93
2023/07/22 15:45:52;;;;;;;;;2.00;2.00;;;;;;;;4738258;30;29906;-93
2023/07/22 15:48:17;;;;;;;;;2.00;2.00;;;;;;;;4737410;30;29511;-93
2023/07/22 15:50:43;;;;;;;;;2.00;2.00;;;;;;;;4763190;29;28804;-93
2023/07/22 15:53:08;;;;;;;;;4.00;3.00;;;;;;;;4770360;29;28391;-93
2023/07/22 15:55:33;;;;;;;;;2.00;2.00;;;;;;;;4771546;29;29246;-93
2023/07/22 15:57:58;;;;;;;;;3.00;3.00;;;;;;;;4764086;29;28372;-93
2023/07/22 16:00:24;;;;;;;;;1.00;1.00;;;;;;;;4770755;29;28395;-93
2023/07/22 16:02:49;;;;;;;;;2.00;2.00;;;;;;;;4770328;29;28361;-93
2023/07/22 16:05:15;;;;;;;;;2.00;2.00;;;;;;;;4771437;29;28445;-93
2023/07/22 16:07:41;;;;;;;;;2.00;2.00;;;;;;;;4772081;29;28697;-94
2023/07/22 16:10:06;;;;;;;;;2.00;2.00;;;;;;;;4770694;29;28378;-93
2023/07/22 16:12:32;;;;;;;;;2.00;2.00;;;;;;;;4769663;29;28489;-93
2023/07/22 16:14:57;;;;;;;;;3.00;3.00;;;;;;;;4754263;29;29629;-93
2023/07/22 16:17:22;;;;;;;;;1.33;1.33;;;;;;;;4755096;29;28310;-93
2023/07/22 16:19:48;;;;;;;;;2.00;2.00;;;;;;;;4770827;29;28526;-93
2023/07/22 16:22:13;;;;;;;;;1.00;1.00;;;;;;;;4771262;29;28802;-93
2023/07/22 16:24:38;;;;;;;;;2.00;2.00;;;;;;;;4754400;29;30507;-93
2023/07/22 16:27:04;;;;;;;;;1.33;1.33;;;;;;;;4755036;29;28415;-93
2023/07/22 16:29:29;;;;;;;;;2.33;2.33;;;;;;;;4755310;29;28267;-93
2023/07/22 16:31:54;;;;;;;;;2.00;2.00;;;;;;;;4771938;29;28314;-93
2023/07/22 16:34:21;;;;;;;;;2.00;2.00;;;;;;;;4754333;29;28892;-93
2023/07/22 16:36:46;;;;;;;;;2.00;2.00;;;;;;;;4755486;29;28542;-92
2023/07/22 16:39:11;;;;;;;;;1.67;1.67;;;;;;;;4771409;29;28535;-92
2023/07/22 16:41:37;;;;;;;;;1.00;1.00;;;;;;;;4769863;29;29196;-94
2023/07/22 16:44:02;;;;;;;;;2.00;2.00;;;;;;;;4754570;29;30217;-93
2023/07/22 16:46:27;;;;;;;;;3.00;3.00;;;;;;;;4770002;29;28526;-93
2023/07/22 16:48:52;;;;;;;;;3.00;2.00;;;;;;;;4773804;29;28578;-93
2023/07/22 16:51:22;;;;;;;;;3.00;3.00;;;;;;;;4743753;30;28670;-93
2023/07/22 16:53:47;;;;;;;;;2.00;2.00;;;;;;;;4756381;30;29407;-93
2023/07/22 16:56:13;;;;;;;;;2.00;2.00;;;;;;;;4740646;30;28679;-93
2023/07/22 16:58:38;;;;;;;;;2.00;2.00;;;;;;;;4733970;30;28371;-93
2023/07/22 17:01:03;;;;;;;;;1.00;1.00;;;;;;;;4740435;30;28565;-93
2023/07/22 17:03:28;;;;;;;;;1.00;1.00;;;;;;;;4755678;30;29085;-93
2023/07/22 17:05:56;;;;;;;;;2.00;2.00;;;;;;;;4739965;30;28413;-92
2023/07/22 17:08:21;;;;;;;;;2.00;2.00;;;;;;;;4756447;30;28516;-92
2023/07/22 17:10:47;;;;;;;;;2.00;2.00;;;;;;;;4753834;29;28395;-93
2023/07/22 17:13:12;;;;;;;;;2.33;2.33;;;;;;;;4754067;30;28592;-94
2023/07/22 17:15:37;;;;;;;;;3.00;3.00;;;;;;;;4754927;30;28318;-93
2023/07/22 17:18:02;;;;;;;;;3.67;2.33;;;;;;;;4739648;30;28647;-93
2023/07/22 17:20:28;;;;;;;;;2.67;2.67;;;;;;;;4737843;30;28669;-92
2023/07/22 17:22:54;;;;;;;;;2.67;2.67;;;;;;;;4740172;30;30965;-93
2023/07/22 17:25:19;;;;;;;;;2.00;2.00;;;;;;;;4738931;30;28526;-94
2023/07/22 17:27:44;;;;;;;;;2.00;2.00;;;;;;;;4752218;30;28326;-94
2023/07/22 17:30:10;;;;;;;;;2.00;2.00;;;;;;;;4750418;30;28320;-92
2023/07/22 17:32:35;;;;;;;;;2.00;2.00;;;;;;;;4755175;30;28350;-95
2023/07/22 17:35:00;;;;;;;;;2.00;2.00;;;;;;;;4740326;30;28535;-95
2023/07/22 17:37:25;;;;;;;;;2.00;2.00;;;;;;;;4755469;30;28565;-94
2023/07/22 17:40:03;;;;;;;;;;;;;;;;;;;;;
2023/07/22 17:42:34;;;;;;;;;2.67;2.67;;;;;;;;4755091;30;57458;-94
2023/07/22 17:44:59;;;;;;;;;2.00;2.00;;;;;;;;4739855;30;28315;-94
2023/07/22 17:47:24;;;;;;;;;2.00;2.00;;;;;;;;4754034;30;29022;-94
2023/07/22 17:49:49;;;;;;;;;1.00;1.00;;;;;;;;4753749;29;28518;-95
2023/07/22 17:52:15;;;;;;;;;3.00;3.00;;;;;;;;4754968;30;29495;-94
2023/07/22 17:54:40;;;;;;;;;2.00;2.00;;;;;;;;4754408;30;28354;-94
2023/07/22 17:57:05;;;;;;;;;3.00;3.00;;;;;;;;4750222;30;28338;-92
2023/07/22 17:59:30;;;;;;;;;4.00;4.00;;;;;;;;4738115;30;28773;-95
2023/07/22 18:01:56;;;;;;;;;3.00;3.00;;;;;;;;4753511;30;29526;-94
2023/07/22 18:04:21;;;;;;;;;3.00;3.00;;;;;;;;4752307;30;28304;-93
2023/07/22 18:06:46;;;;;;;;;2.00;2.00;;;;;;;;4739880;30;28672;-93
2023/07/22 18:09:11;;;;;;;;;3.00;3.00;;;;;;;;4753529;30;28601;-93
2023/07/22 18:11:37;;;;;;;;;2.00;2.00;;;;;;;;4734192;30;28718;-94
2023/07/22 18:14:02;;;;;;;;;2.00;2.00;;;;;;;;4730935;30;28449;-94
2023/07/22 18:16:35;;;;;;;;;3.00;3.00;;;;;;;;4747431;30;28496;-94
2023/07/22 18:19:00;;;;;;;;;2.67;2.67;;;;;;;;4747475;30;28499;-93
2023/07/22 18:21:26;;;;;;;;;2.00;2.00;;;;;;;;4747325;30;29263;-93
2023/07/22 18:23:54;;;;;;;;;2.33;2.33;;;;;;;;4744347;30;28408;-93
2023/07/22 18:26:19;;;;;;;;;2.33;2.33;;;;;;;;4747139;30;28499;-93
2023/07/22 18:28:44;;;;;;;;;1.67;1.67;;;;;;;;4747224;30;28532;-94
2023/07/22 18:31:09;;;;;;;;;3.00;3.00;;;;;;;;4744288;30;29337;-94
2023/07/22 18:33:35;;;;;;;;;2.00;2.00;;;;;;;;4732412;30;28844;-95
2023/07/22 18:36:00;;;;;;;;;5.00;4.00;;;;;;;;4738622;30;28430;-94
2023/07/22 18:38:27;;;;;;;;;3.00;3.00;;;;;;;;4738190;30;28516;-94
2023/07/22 18:40:52;;;;;;;;;5.33;4.00;;;;;;;;4753490;30;28542;-94
2023/07/22 18:43:18;;;;;;;;;4.00;4.00;;;;;;;;4753597;30;28428;-94
